Time,TemperatureF,DewpointF,PressureIn,WindDirection,WindDirectionDegrees,WindSpeedMPH,WindSpeedGustMPH,Humidity,HourlyPrecipIn,Conditions,Clouds,dailyrainin,SoftwareType,DateUTC
2013-04-01 00:08:00,42.8,40.9,29.60,North,0,2.2,-999.0,93,-99.99,,,0.00,Acu-Link.com,2013-04-01 04:08:00,
2013-04-01 00:24:00,42.8,41.7,29.59,North,0,1.1,-999.0,96,-99.99,,,0.02,Acu-Link.com,2013-04-01 04:24:00,
2013-04-01 00:39:00,42.4,41.6,29.60,North,0,2.2,-999.0,97,-99.99,,,0.08,Acu-Link.com,2013-04-01 04:39:00,
2013-04-01 00:54:00,42.3,41.7,29.58,North,0,1.6,-999.0,98,-99.99,,,0.18,Acu-Link.com,2013-04-01 04:54:00,
2013-04-01 01:09:00,42.3,41.7,29.58,North,0,1.6,-999.0,98,-99.99,,,0.21,Acu-Link.com,2013-04-01 05:09:00,
2013-04-01 01:25:00,42.3,41.7,29.57,North,0,2.2,-999.0,98,-99.99,,,0.24,Acu-Link.com,2013-04-01 05:25:00,
2013-04-01 01:40:00,42.1,41.8,29.56,North,0,1.6,-999.0,99,-99.99,,,0.25,Acu-Link.com,2013-04-01 05:40:00,
2013-04-01 01:55:00,41.9,41.6,29.56,North,0,2.2,-999.0,99,-99.99,,,0.26,Acu-Link.com,2013-04-01 05:55:00,
2013-04-01 02:10:00,41.7,41.5,29.55,North,0,5.1,-999.0,99,-99.99,,,0.26,Acu-Link.com,2013-04-01 06:10:00,
2013-04-01 02:26:00,41.5,41.3,29.54,North,0,2.2,-999.0,99,-99.99,,,0.27,Acu-Link.com,2013-04-01 06:26:00,
2013-04-01 02:41:00,41.4,41.1,29.54,North,0,1.1,-999.0,99,-99.99,,,0.28,Acu-Link.com,2013-04-01 06:41:00,
2013-04-01 02:56:00,41.4,41.1,29.54,North,0,1.1,-999.0,99,-99.99,,,0.28,Acu-Link.com,2013-04-01 06:56:00,
2013-04-01 03:27:00,41.2,40.9,29.54,North,0,1.6,-999.0,99,-99.99,,,0.28,Acu-Link.com,2013-04-01 07:27:00,
2013-04-01 03:42:00,41.2,40.9,29.53,North,0,1.1,-999.0,99,-99.99,,,0.28,Acu-Link.com,2013-04-01 07:42:00,
2013-04-01 04:13:00,41.2,40.9,29.54,North,0,3.1,-999.0,99,-99.99,,,0.28,Acu-Link.com,2013-04-01 08:13:00,
2013-04-01 04:28:00,41.2,40.9,29.54,North,0,2.2,-999.0,99,-99.99,,,0.28,Acu-Link.com,2013-04-01 08:28:00,
2013-04-01 04:43:00,41.0,40.7,29.55,North,0,0.0,-999.0,99,-99.99,,,0.28,Acu-Link.com,2013-04-01 08:43:00,
2013-04-01 04:59:00,40.8,40.6,29.54,North,0,2.2,-999.0,99,-99.99,,,0.28,Acu-Link.com,2013-04-01 08:59:00,
2013-04-01 05:14:00,40.8,40.6,29.56,North,0,1.6,-999.0,99,-99.99,,,0.28,Acu-Link.com,2013-04-01 09:14:00,
2013-04-01 05:29:00,40.6,40.4,29.57,North,0,2.7,-999.0,99,-99.99,,,0.28,Acu-Link.com,2013-04-01 09:29:00,
2013-04-01 05:44:00,40.6,40.4,29.58,WSW,247,0.0,-999.0,99,-99.99,,,0.28,Acu-Link.com,2013-04-01 09:44:00,
2013-04-01 05:59:00,40.1,39.8,29.58,NNW,337,2.2,-999.0,99,-99.99,,,0.28,Acu-Link.com,2013-04-01 09:59:00,
2013-04-01 06:15:00,39.9,39.7,29.58,NNW,337,0.0,-999.0,99,-99.99,,,0.28,Acu-Link.com,2013-04-01 10:15:00,
2013-04-01 06:30:00,39.7,39.5,29.58,NNW,337,2.2,-999.0,99,-99.99,,,0.28,Acu-Link.com,2013-04-01 10:30:00,
2013-04-01 06:45:00,39.7,39.5,29.59,NNW,337,1.1,-999.0,99,-99.99,,,0.28,Acu-Link.com,2013-04-01 10:45:00,
2013-04-01 07:00:00,39.7,39.5,29.58,NNW,337,0.0,-999.0,99,-99.99,,,0.28,Acu-Link.com,2013-04-01 11:00:00,
2013-04-01 07:31:00,40.5,40.2,29.58,NNW,337,0.0,-999.0,99,-99.99,,,0.28,Acu-Link.com,2013-04-01 11:31:00,
2013-04-01 07:46:00,41.7,41.2,29.58,NNW,337,0.0,-999.0,98,-99.99,,,0.28,Acu-Link.com,2013-04-01 11:46:00,
2013-04-01 08:02:00,41.7,41.2,29.59,NNW,337,1.6,-999.0,98,-99.99,,,0.28,Acu-Link.com,2013-04-01 12:02:00,
2013-04-01 08:17:00,42.4,41.9,29.58,NNW,337,0.0,-999.0,98,-99.99,,,0.28,Acu-Link.com,2013-04-01 12:17:00,
2013-04-01 08:32:00,43.9,42.0,29.57,NNW,337,3.8,-999.0,93,-99.99,,,0.28,Acu-Link.com,2013-04-01 12:32:00,
2013-04-01 08:48:00,46.0,43.0,29.57,NNW,337,5.1,-999.0,89,-99.99,,,0.28,Acu-Link.com,2013-04-01 12:48:00,
2013-04-01 09:03:00,45.9,41.9,29.57,WSW,247,2.2,-999.0,86,-99.99,,,0.28,Acu-Link.com,2013-04-01 13:03:00,
2013-04-01 09:18:00,47.5,42.3,29.57,SSW,202,4.3,-999.0,82,-99.99,,,0.28,Acu-Link.com,2013-04-01 13:18:00,
2013-04-01 09:33:00,46.6,42.6,29.56,WSW,247,3.1,-999.0,86,-99.99,,,0.28,Acu-Link.com,2013-04-01 13:33:00,
2013-04-01 09:49:00,48.0,42.5,29.57,WSW,247,3.8,-999.0,81,-99.99,,,0.28,Acu-Link.com,2013-04-01 13:49:00,
2013-04-01 10:19:00,51.3,44.0,29.57,West,270,5.8,-999.0,76,-99.99,,,0.30,Acu-Link.com,2013-04-01 14:19:00,
2013-04-01 10:35:00,52.3,42.8,29.56,WSW,247,5.1,-999.0,70,-99.99,,,0.30,Acu-Link.com,2013-04-01 14:35:00,
2013-04-01 10:50:00,53.2,43.0,29.56,SSW,202,4.3,-999.0,68,-99.99,,,0.30,Acu-Link.com,2013-04-01 14:50:00,
2013-04-01 11:05:00,54.0,42.9,29.53,SE,135,3.1,-999.0,66,-99.99,,,0.30,Acu-Link.com,2013-04-01 15:05:00,
2013-04-01 11:20:00,56.5,43.2,29.54,SW,225,6.7,-999.0,61,-99.99,,,0.30,Acu-Link.com,2013-04-01 15:20:00,
2013-04-01 11:36:00,57.4,43.2,29.53,WSW,247,3.8,-999.0,59,-99.99,,,0.30,Acu-Link.com,2013-04-01 15:36:00,
2013-04-01 11:51:00,57.7,43.5,29.52,South,180,11.0,-999.0,59,-99.99,,,0.30,Acu-Link.com,2013-04-01 15:51:00,
2013-04-01 12:06:00,58.6,43.9,29.52,West,270,8.9,-999.0,58,-99.99,,,0.30,Acu-Link.com,2013-04-01 16:06:00,
2013-04-01 12:37:00,59.5,42.4,29.51,NW,315,2.7,-999.0,53,-99.99,,,0.30,Acu-Link.com,2013-04-01 16:37:00,
2013-04-01 12:52:00,57.9,42.3,29.50,West,270,6.7,-999.0,56,-99.99,,,0.30,Acu-Link.com,2013-04-01 16:52:00,
2013-04-01 13:07:00,57.7,41.2,29.49,SSW,202,3.8,-999.0,54,-99.99,,,0.30,Acu-Link.com,2013-04-01 17:07:00,
2013-04-01 13:23:00,58.8,41.2,29.49,SW,225,8.9,-999.0,52,-99.99,,,0.30,Acu-Link.com,2013-04-01 17:23:00,
2013-04-01 13:38:00,57.4,40.4,29.49,SSW,202,4.7,-999.0,53,-99.99,,,0.30,Acu-Link.com,2013-04-01 17:38:00,
2013-04-01 13:53:00,57.2,38.2,29.48,West,270,3.1,-999.0,49,-99.99,,,0.30,Acu-Link.com,2013-04-01 17:53:00,
2013-04-01 14:08:00,58.1,38.5,29.48,NW,315,7.4,-999.0,48,-99.99,,,0.30,Acu-Link.com,2013-04-01 18:08:00,
2013-04-01 14:24:00,60.4,39.6,29.46,WSW,247,11.4,-999.0,46,-99.99,,,0.30,Acu-Link.com,2013-04-01 18:24:00,
2013-04-01 14:39:00,58.5,38.3,29.46,SSW,202,3.8,-999.0,47,-99.99,,,0.30,Acu-Link.com,2013-04-01 18:39:00,
2013-04-01 14:54:00,52.9,42.2,29.51,North,0,7.4,-999.0,67,-99.99,,,0.31,Acu-Link.com,2013-04-01 18:54:00,
2013-04-01 15:09:00,46.0,43.6,29.51,WSW,247,4.3,-999.0,91,-99.99,,,0.37,Acu-Link.com,2013-04-01 19:09:00,
2013-04-01 15:25:00,46.2,42.0,29.52,NW,315,2.2,-999.0,85,-99.99,,,0.39,Acu-Link.com,2013-04-01 19:25:00,
2013-04-01 15:40:00,45.9,41.9,29.52,North,0,2.7,-999.0,86,-99.99,,,0.40,Acu-Link.com,2013-04-01 19:40:00,
2013-04-01 15:55:00,46.0,42.1,29.52,NNW,337,2.7,-999.0,86,-99.99,,,0.40,Acu-Link.com,2013-04-01 19:55:00,
2013-04-01 16:11:00,44.2,36.8,29.55,South,180,5.8,-999.0,75,-99.99,,,0.40,Acu-Link.com,2013-04-01 20:11:00,
2013-04-01 16:26:00,42.6,36.2,29.56,WSW,247,7.4,-999.0,78,-99.99,,,0.40,Acu-Link.com,2013-04-01 20:26:00,
2013-04-01 16:41:00,41.2,33.9,29.58,WSW,247,2.7,-999.0,75,-99.99,,,0.40,Acu-Link.com,2013-04-01 20:41:00,
2013-04-01 16:57:00,41.2,32.9,29.59,SW,225,2.7,-999.0,72,-99.99,,,0.40,Acu-Link.com,2013-04-01 20:57:00,
2013-04-01 17:12:00,41.0,32.0,29.60,North,0,6.7,-999.0,70,-99.99,,,0.40,Acu-Link.com,2013-04-01 21:12:00,
2013-04-01 17:27:00,39.6,29.5,29.61,North,0,7.4,-999.0,67,-99.99,,,0.40,Acu-Link.com,2013-04-01 21:27:00,
2013-04-01 17:42:00,39.0,28.6,29.62,SSW,202,6.7,-999.0,66,-99.99,,,0.40,Acu-Link.com,2013-04-01 21:42:00,
2013-04-01 17:57:00,39.0,28.6,29.62,North,0,2.2,-999.0,66,-99.99,,,0.40,Acu-Link.com,2013-04-01 21:57:00,
2013-04-01 18:13:00,39.0,28.3,29.63,North,0,2.2,-999.0,65,-99.99,,,0.40,Acu-Link.com,2013-04-01 22:13:00,
2013-04-01 18:28:00,39.0,27.1,29.63,NNE,22,7.8,-999.0,62,-99.99,,,0.40,Acu-Link.com,2013-04-01 22:28:00,
2013-04-01 18:43:00,39.0,26.3,29.63,SSE,157,4.3,-999.0,60,-99.99,,,0.40,Acu-Link.com,2013-04-01 22:43:00,
2013-04-01 18:59:00,39.0,25.5,29.64,North,0,5.8,-999.0,58,-99.99,,,0.40,Acu-Link.com,2013-04-01 22:59:00,
2013-04-01 19:14:00,38.8,22.7,29.65,NNW,337,4.7,-999.0,52,-99.99,,,0.40,Acu-Link.com,2013-04-01 23:14:00,
2013-04-01 19:29:00,37.9,21.0,29.66,NNE,22,5.1,-999.0,50,-99.99,,,0.40,Acu-Link.com,2013-04-01 23:29:00,
2013-04-01 19:45:00,37.2,20.3,29.66,North,0,5.1,-999.0,50,-99.99,,,0.40,Acu-Link.com,2013-04-01 23:45:00,
2013-04-01 20:00:00,36.9,18.5,29.67,SW,225,2.2,-999.0,47,-99.99,,,0.40,Acu-Link.com,2013-04-02 00:00:00,
2013-04-01 20:15:00,36.1,17.9,29.68,NNW,337,2.2,-999.0,47,-99.99,,,0.40,Acu-Link.com,2013-04-02 00:15:00,
2013-04-01 20:30:00,35.6,17.4,29.70,NNW,337,4.7,-999.0,47,-99.99,,,0.40,Acu-Link.com,2013-04-02 00:30:00,
2013-04-01 21:01:00,34.7,15.6,29.70,NNW,337,2.2,-999.0,45,-99.99,,,0.40,Acu-Link.com,2013-04-02 01:01:00,
2013-04-01 21:16:00,34.3,15.2,29.71,SE,135,2.7,-999.0,45,-99.99,,,0.40,Acu-Link.com,2013-04-02 01:16:00,
2013-04-01 21:32:00,34.2,15.6,29.72,NNW,337,4.7,-999.0,46,-99.99,,,0.40,Acu-Link.com,2013-04-02 01:32:00,
2013-04-01 21:47:00,34.2,15.1,29.72,West,270,8.3,-999.0,45,-99.99,,,0.40,Acu-Link.com,2013-04-02 01:47:00,
2013-04-01 22:02:00,33.6,16.0,29.73,WSW,247,7.4,-999.0,48,-99.99,,,0.40,Acu-Link.com,2013-04-02 02:02:00,
2013-04-01 22:17:00,32.9,15.9,29.74,NNW,337,4.7,-999.0,49,-99.99,,,0.40,Acu-Link.com,2013-04-02 02:17:00,
2013-04-01 22:33:00,33.1,15.6,29.74,South,180,3.8,-999.0,48,-99.99,,,0.40,Acu-Link.com,2013-04-02 02:33:00,
2013-04-01 22:48:00,32.4,15.8,29.74,SW,225,6.3,-999.0,50,-99.99,,,0.40,Acu-Link.com,2013-04-02 02:48:00,
2013-04-01 23:03:00,32.4,16.3,29.74,NNW,337,1.1,-999.0,51,-99.99,,,0.40,Acu-Link.com,2013-04-02 03:03:00,
2013-04-01 23:18:00,31.8,15.8,29.76,North,0,3.8,-999.0,51,-99.99,,,0.40,Acu-Link.com,2013-04-02 03:18:00,
2013-04-01 23:34:00,31.8,15.3,29.76,NW,315,3.1,-999.0,50,-99.99,,,0.40,Acu-Link.com,2013-04-02 03:34:00,
2013-04-01 23:49:00,31.5,14.5,29.76,NW,315,2.7,-999.0,49,-99.99,,,0.40,Acu-Link.com,2013-04-02 03:49:00,